SAS4017 ENGM-ENZV
Flight info
| Callsign | SAS4017 |
|---|---|
| Flight time | 0h 40m |
| Altitude | 34000 |
| Route | ATLAP DCT IPMOD DCT ROPNO |
| Aircraft | E195/M-SDE3GILORVW/S |
Departure
| Time | 2026-04-16 06:53 |
|---|---|
| Airport | Oslo-Gardermoen International Airport (ENGM) |
Arrival
| Time | 2026-04-16 07:33 |
|---|---|
| Airport | Stavanger Airport, Sola (ENZV) |
| Time | Latitude | Longitude | Altitude | Speed | Heading |
|---|---|---|---|---|---|
| 2026-04-16 06:20 | 60.19490 | 11.09273 | 682 ft | 0 kts | 16° |
| 2026-04-16 06:38 | 60.19493 | 11.09274 | 684 ft | 2 kts | 16° |
| 2026-04-16 06:39 | 60.19493 | 11.09275 | 684 ft | 0 kts | 16° |
| 2026-04-16 06:41 | 60.19486 | 11.09270 | 684 ft | 2 kts | 16° |
| 2026-04-16 06:41 | 60.19466 | 11.09259 | 677 ft | 3 kts | 16° |
| 2026-04-16 06:41 | 60.19447 | 11.09248 | 677 ft | 3 kts | 16° |
| 2026-04-16 06:41 | 60.19428 | 11.09238 | 678 ft | 3 kts | 19° |
| 2026-04-16 06:42 | 60.19411 | 11.09221 | 680 ft | 3 kts | 51° |
| 2026-04-16 06:42 | 60.19403 | 11.09190 | 678 ft | 3 kts | 93° |
| 2026-04-16 06:42 | 60.19404 | 11.09164 | 680 ft | 0 kts | 106° |
| 2026-04-16 06:42 | 60.19405 | 11.09161 | 680 ft | 1 kts | 106° |
| 2026-04-16 06:43 | 60.19405 | 11.09158 | 679 ft | 0 kts | 107° |
| 2026-04-16 06:45 | 60.19404 | 11.09168 | 680 ft | 2 kts | 105° |
| 2026-04-16 06:45 | 60.19407 | 11.09205 | 679 ft | 3 kts | 67° |
| 2026-04-16 06:46 | 60.19431 | 11.09211 | 681 ft | 4 kts | 330° |
| 2026-04-16 06:46 | 60.19452 | 11.09118 | 681 ft | 11 kts | 287° |
| 2026-04-16 06:46 | 60.19478 | 11.08938 | 684 ft | 15 kts | 285° |
| 2026-04-16 06:46 | 60.19509 | 11.08728 | 676 ft | 15 kts | 286° |
| 2026-04-16 06:47 | 60.19523 | 11.08625 | 675 ft | 8 kts | 285° |
| 2026-04-16 06:47 | 60.19513 | 11.08534 | 674 ft | 8 kts | 228° |
| 2026-04-16 06:47 | 60.19444 | 11.08481 | 675 ft | 14 kts | 195° |
| 2026-04-16 06:47 | 60.19347 | 11.08425 | 674 ft | 15 kts | 196° |
| 2026-04-16 06:48 | 60.19265 | 11.08378 | 673 ft | 13 kts | 196° |
| 2026-04-16 06:48 | 60.19228 | 11.08271 | 671 ft | 8 kts | 277° |
| 2026-04-16 06:48 | 60.19244 | 11.08158 | 671 ft | 9 kts | 286° |
| 2026-04-16 06:48 | 60.19254 | 11.08087 | 670 ft | 1 kts | 285° |
| 2026-04-16 06:49 | 60.19254 | 11.08086 | 670 ft | 0 kts | 285° |
| 2026-04-16 06:49 | 60.19256 | 11.08071 | 670 ft | 3 kts | 285° |
| 2026-04-16 06:49 | 60.19266 | 11.08001 | 669 ft | 7 kts | 285° |
| 2026-04-16 06:49 | 60.19283 | 11.07890 | 670 ft | 9 kts | 290° |
| 2026-04-16 06:50 | 60.19334 | 11.07856 | 671 ft | 4 kts | 16° |
| 2026-04-16 06:50 | 60.19336 | 11.07857 | 671 ft | 0 kts | 17° |
| 2026-04-16 06:52 | 60.19379 | 11.07882 | 671 ft | 28 kts | 15° |
| 2026-04-16 06:52 | 60.19777 | 11.08111 | 671 ft | 90 kts | 16° |
| 2026-04-16 06:52 | 60.20560 | 11.08563 | 679 ft | 143 kts | 16° |
| 2026-04-16 06:52 | 60.21569 | 11.09138 | 1128 ft | 152 kts | 16° |
| 2026-04-16 06:53 | 60.22615 | 11.09707 | 1776 ft | 159 kts | 18° |
| 2026-04-16 06:53 | 60.23699 | 11.10294 | 2422 ft | 164 kts | 19° |
| 2026-04-16 06:53 | 60.24839 | 11.10908 | 2779 ft | 165 kts | 20° |
| 2026-04-16 06:53 | 60.25930 | 11.11514 | 2753 ft | 159 kts | 20° |
| 2026-04-16 06:54 | 60.27029 | 11.11819 | 2756 ft | 172 kts | 2° |
| 2026-04-16 06:54 | 60.28249 | 11.11271 | 3475 ft | 184 kts | 339° |
| 2026-04-16 06:54 | 60.29476 | 11.10264 | 3877 ft | 193 kts | 336° |
| 2026-04-16 06:54 | 60.30648 | 11.08862 | 4282 ft | 206 kts | 316° |
| 2026-04-16 06:55 | 60.31480 | 11.06466 | 4706 ft | 215 kts | 289° |
| 2026-04-16 06:55 | 60.31800 | 11.03471 | 5093 ft | 226 kts | 265° |
| 2026-04-16 06:55 | 60.31462 | 11.00371 | 5543 ft | 231 kts | 241° |
| 2026-04-16 06:55 | 60.30793 | 10.97362 | 6009 ft | 243 kts | 252° |
| 2026-04-16 06:56 | 60.30767 | 10.93826 | 6330 ft | 266 kts | 279° |
| 2026-04-16 06:56 | 60.31225 | 10.90107 | 6713 ft | 279 kts | 283° |
| 2026-04-16 06:56 | 60.31699 | 10.86267 | 7217 ft | 285 kts | 282° |
| 2026-04-16 06:56 | 60.31939 | 10.82320 | 7748 ft | 284 kts | 261° |
| 2026-04-16 06:57 | 60.31226 | 10.78721 | 8325 ft | 276 kts | 228° |
| 2026-04-16 06:57 | 60.29790 | 10.76258 | 8974 ft | 271 kts | 210° |
| 2026-04-16 06:57 | 60.28184 | 10.74259 | 9615 ft | 273 kts | 209° |
| 2026-04-16 06:57 | 60.26559 | 10.72221 | 10194 ft | 280 kts | 209° |
| 2026-04-16 06:58 | 60.24849 | 10.70122 | 10489 ft | 294 kts | 209° |
| 2026-04-16 06:58 | 60.23084 | 10.67944 | 10958 ft | 301 kts | 209° |
| 2026-04-16 06:58 | 60.21279 | 10.65756 | 11525 ft | 305 kts | 209° |
| 2026-04-16 06:58 | 60.19446 | 10.63577 | 12111 ft | 308 kts | 208° |
| 2026-04-16 06:59 | 60.17618 | 10.61302 | 12699 ft | 312 kts | 216° |
| 2026-04-16 06:59 | 60.16261 | 10.57888 | 13288 ft | 319 kts | 243° |
| 2026-04-16 06:59 | 60.15678 | 10.53562 | 13914 ft | 326 kts | 262° |
| 2026-04-16 06:59 | 60.15593 | 10.49051 | 14475 ft | 329 kts | 267° |
| 2026-04-16 07:00 | 60.15525 | 10.44439 | 15009 ft | 332 kts | 266° |
| 2026-04-16 07:00 | 60.15451 | 10.39780 | 15551 ft | 335 kts | 266° |
| 2026-04-16 07:00 | 60.15375 | 10.35073 | 16084 ft | 339 kts | 266° |
| 2026-04-16 07:01 | 60.15221 | 10.25529 | 17179 ft | 345 kts | 266° |
| 2026-04-16 07:01 | 60.15149 | 10.20688 | 17742 ft | 348 kts | 266° |
| 2026-04-16 07:01 | 60.15078 | 10.15803 | 18305 ft | 352 kts | 266° |
| 2026-04-16 07:01 | 60.15011 | 10.10870 | 18840 ft | 355 kts | 266° |
| 2026-04-16 07:02 | 60.14949 | 10.05905 | 19377 ft | 357 kts | 266° |
| 2026-04-16 07:02 | 60.14888 | 10.00918 | 20015 ft | 356 kts | 267° |
| 2026-04-16 07:02 | 60.14835 | 9.95927 | 20561 ft | 359 kts | 268° |
| 2026-04-16 07:02 | 60.14785 | 9.90903 | 21081 ft | 361 kts | 268° |
| 2026-04-16 07:03 | 60.14739 | 9.85842 | 21578 ft | 364 kts | 268° |
| 2026-04-16 07:03 | 60.14600 | 9.80759 | 22035 ft | 366 kts | 259° |
| 2026-04-16 07:03 | 60.13732 | 9.75985 | 22476 ft | 367 kts | 241° |
| 2026-04-16 07:03 | 60.12523 | 9.71474 | 22983 ft | 368 kts | 242° |
| 2026-04-16 07:04 | 60.11328 | 9.66901 | 23474 ft | 371 kts | 242° |
| 2026-04-16 07:04 | 60.10123 | 9.62313 | 23948 ft | 373 kts | 242° |
| 2026-04-16 07:04 | 60.08911 | 9.57706 | 24349 ft | 375 kts | 242° |
| 2026-04-16 07:04 | 60.07692 | 9.53076 | 24757 ft | 377 kts | 242° |
| 2026-04-16 07:05 | 60.06462 | 9.48414 | 25148 ft | 380 kts | 242° |
| 2026-04-16 07:05 | 60.05223 | 9.43736 | 25533 ft | 382 kts | 242° |
| 2026-04-16 07:05 | 60.03975 | 9.39029 | 25911 ft | 384 kts | 242° |
| 2026-04-16 07:05 | 60.02719 | 9.34306 | 26273 ft | 386 kts | 242° |
| 2026-04-16 07:06 | 60.01454 | 9.29563 | 26637 ft | 388 kts | 240° |
| 2026-04-16 07:06 | 60.00180 | 9.24805 | 27001 ft | 389 kts | 240° |
| 2026-04-16 07:06 | 59.98904 | 9.20033 | 27358 ft | 390 kts | 240° |
| 2026-04-16 07:06 | 59.97620 | 9.15240 | 27670 ft | 393 kts | 240° |
| 2026-04-16 07:07 | 59.96343 | 9.10491 | 27966 ft | 395 kts | 240° |
| 2026-04-16 07:07 | 59.95038 | 9.05661 | 28335 ft | 396 kts | 240° |
| 2026-04-16 07:07 | 59.93729 | 9.00815 | 28657 ft | 398 kts | 240° |
| 2026-04-16 07:07 | 59.92411 | 8.95942 | 28953 ft | 400 kts | 240° |
| 2026-04-16 07:08 | 59.91091 | 8.91075 | 29265 ft | 398 kts | 240° |
| 2026-04-16 07:08 | 59.88411 | 8.81232 | 29232 ft | 408 kts | 240° |
| 2026-04-16 07:09 | 59.85660 | 8.71206 | 29230 ft | 415 kts | 240° |
| 2026-04-16 07:09 | 59.82894 | 8.61118 | 29254 ft | 417 kts | 239° |
| 2026-04-16 07:10 | 59.80101 | 8.50969 | 29286 ft | 420 kts | 239° |
| 2026-04-16 07:10 | 59.77284 | 8.40805 | 29269 ft | 420 kts | 239° |
| 2026-04-16 07:11 | 59.74457 | 8.30656 | 29201 ft | 420 kts | 238° |
| 2026-04-16 07:11 | 59.71651 | 8.20597 | 29230 ft | 419 kts | 239° |
| 2026-04-16 07:12 | 59.68827 | 8.10479 | 29216 ft | 419 kts | 238° |
| 2026-04-16 07:12 | 59.66069 | 8.00574 | 29194 ft | 405 kts | 238° |
| 2026-04-16 07:13 | 59.63364 | 7.90886 | 29191 ft | 395 kts | 238° |
| 2026-04-16 07:13 | 59.62069 | 7.86243 | 29145 ft | 381 kts | 238° |
| 2026-04-16 07:13 | 59.60769 | 7.81620 | 28848 ft | 391 kts | 237° |
| 2026-04-16 07:13 | 59.59435 | 7.76879 | 28286 ft | 398 kts | 237° |
| 2026-04-16 07:14 | 59.58090 | 7.72077 | 27412 ft | 403 kts | 237° |
| 2026-04-16 07:14 | 59.56722 | 7.67206 | 26348 ft | 408 kts | 237° |
| 2026-04-16 07:14 | 59.55338 | 7.62286 | 25241 ft | 413 kts | 238° |
| 2026-04-16 07:14 | 59.53934 | 7.57318 | 24132 ft | 417 kts | 238° |
| 2026-04-16 07:15 | 59.52514 | 7.52309 | 23092 ft | 417 kts | 238° |
| 2026-04-16 07:15 | 59.51135 | 7.47435 | 22613 ft | 401 kts | 238° |
| 2026-04-16 07:15 | 59.49797 | 7.42707 | 22099 ft | 389 kts | 238° |
| 2026-04-16 07:15 | 59.48495 | 7.38124 | 21578 ft | 378 kts | 238° |
| 2026-04-16 07:16 | 59.47227 | 7.33672 | 21087 ft | 368 kts | 238° |
| 2026-04-16 07:16 | 59.45989 | 7.29331 | 20593 ft | 360 kts | 238° |
| 2026-04-16 07:16 | 59.44775 | 7.25101 | 20117 ft | 351 kts | 238° |
| 2026-04-16 07:16 | 59.43591 | 7.20973 | 19635 ft | 343 kts | 238° |
| 2026-04-16 07:17 | 59.42433 | 7.16926 | 19203 ft | 337 kts | 238° |
| 2026-04-16 07:17 | 59.41291 | 7.12959 | 18753 ft | 331 kts | 238° |
| 2026-04-16 07:17 | 59.40167 | 7.09053 | 18295 ft | 326 kts | 237° |
| 2026-04-16 07:17 | 59.39062 | 7.05222 | 17864 ft | 319 kts | 237° |
| 2026-04-16 07:18 | 59.37972 | 7.01457 | 17481 ft | 315 kts | 236° |
| 2026-04-16 07:18 | 59.36889 | 6.97730 | 17022 ft | 314 kts | 237° |
| 2026-04-16 07:18 | 59.35815 | 6.94005 | 16605 ft | 313 kts | 237° |
| 2026-04-16 07:18 | 59.35096 | 6.91540 | 16330 ft | 315 kts | 236° |
| 2026-04-16 07:19 | 59.34007 | 6.87808 | 15905 ft | 317 kts | 237° |
| 2026-04-16 07:19 | 59.32982 | 6.83948 | 15501 ft | 322 kts | 243° |
| 2026-04-16 07:19 | 59.32308 | 6.79756 | 15057 ft | 324 kts | 248° |
| 2026-04-16 07:19 | 59.31698 | 6.75541 | 14632 ft | 321 kts | 247° |
| 2026-04-16 07:20 | 59.31071 | 6.71380 | 14189 ft | 316 kts | 248° |
| 2026-04-16 07:20 | 59.30458 | 6.67282 | 13718 ft | 311 kts | 248° |
| 2026-04-16 07:20 | 59.29856 | 6.63259 | 13336 ft | 305 kts | 247° |
| 2026-04-16 07:20 | 59.29271 | 6.59311 | 12929 ft | 299 kts | 250° |
| 2026-04-16 07:21 | 59.28699 | 6.55435 | 12559 ft | 294 kts | 247° |
| 2026-04-16 07:21 | 59.28124 | 6.51636 | 12144 ft | 289 kts | 248° |
| 2026-04-16 07:21 | 59.27567 | 6.47891 | 11788 ft | 284 kts | 249° |
| 2026-04-16 07:21 | 59.27015 | 6.44207 | 11377 ft | 282 kts | 249° |
| 2026-04-16 07:22 | 59.26241 | 6.40762 | 10943 ft | 275 kts | 233° |
| 2026-04-16 07:22 | 59.25277 | 6.37533 | 10560 ft | 275 kts | 234° |
| 2026-04-16 07:22 | 59.24274 | 6.34363 | 10169 ft | 274 kts | 233° |
| 2026-04-16 07:22 | 59.23223 | 6.31305 | 9749 ft | 268 kts | 230° |
| 2026-04-16 07:23 | 59.22232 | 6.28247 | 9435 ft | 266 kts | 233° |
| 2026-04-16 07:23 | 59.21256 | 6.25177 | 9089 ft | 266 kts | 232° |
| 2026-04-16 07:23 | 59.20251 | 6.22143 | 8663 ft | 265 kts | 233° |
| 2026-04-16 07:23 | 59.19302 | 6.19084 | 8327 ft | 262 kts | 232° |
| 2026-04-16 07:24 | 59.18321 | 6.16110 | 7962 ft | 260 kts | 231° |
| 2026-04-16 07:24 | 59.17362 | 6.13191 | 7609 ft | 258 kts | 232° |
| 2026-04-16 07:24 | 59.16401 | 6.10268 | 7224 ft | 255 kts | 232° |
| 2026-04-16 07:24 | 59.15437 | 6.07416 | 6898 ft | 250 kts | 231° |
| 2026-04-16 07:25 | 59.14484 | 6.04615 | 6572 ft | 245 kts | 232° |
| 2026-04-16 07:25 | 59.13576 | 6.01886 | 6182 ft | 234 kts | 231° |
| 2026-04-16 07:25 | 59.12725 | 5.99311 | 5868 ft | 219 kts | 230° |
| 2026-04-16 07:25 | 59.11933 | 5.96931 | 5584 ft | 202 kts | 229° |
| 2026-04-16 07:26 | 59.11172 | 5.94671 | 5327 ft | 198 kts | 228° |
| 2026-04-16 07:26 | 59.10421 | 5.92468 | 5080 ft | 194 kts | 227° |
| 2026-04-16 07:26 | 59.09673 | 5.90233 | 4849 ft | 199 kts | 227° |
| 2026-04-16 07:26 | 59.08913 | 5.87958 | 4561 ft | 202 kts | 227° |
| 2026-04-16 07:27 | 59.08146 | 5.85661 | 4242 ft | 203 kts | 226° |
| 2026-04-16 07:27 | 59.07375 | 5.83359 | 3952 ft | 204 kts | 226° |
| 2026-04-16 07:27 | 59.06609 | 5.81034 | 3685 ft | 205 kts | 226° |
| 2026-04-16 07:27 | 59.05834 | 5.78705 | 3410 ft | 205 kts | 225° |
| 2026-04-16 07:28 | 59.05071 | 5.76405 | 3112 ft | 200 kts | 225° |
| 2026-04-16 07:28 | 59.04385 | 5.74057 | 2844 ft | 204 kts | 235° |
| 2026-04-16 07:28 | 59.03946 | 5.71434 | 2599 ft | 202 kts | 239° |
| 2026-04-16 07:28 | 59.03490 | 5.68875 | 2314 ft | 199 kts | 238° |
| 2026-04-16 07:29 | 59.03026 | 5.66368 | 2152 ft | 196 kts | 238° |
| 2026-04-16 07:29 | 59.02370 | 5.64238 | 1998 ft | 170 kts | 201° |
| 2026-04-16 07:29 | 59.01363 | 5.63732 | 2089 ft | 147 kts | 176° |
| 2026-04-16 07:29 | 59.00321 | 5.63288 | 2121 ft | 153 kts | 175° |
| 2026-04-16 07:30 | 58.99271 | 5.63438 | 1939 ft | 151 kts | 165° |
| 2026-04-16 07:30 | 58.98242 | 5.63492 | 1764 ft | 149 kts | 172° |
| 2026-04-16 07:30 | 58.97257 | 5.63467 | 1563 ft | 136 kts | 167° |
| 2026-04-16 07:30 | 58.96322 | 5.63541 | 1477 ft | 130 kts | 168° |
| 2026-04-16 07:31 | 58.95399 | 5.63540 | 1256 ft | 133 kts | 170° |
| 2026-04-16 07:31 | 58.94512 | 5.63568 | 1072 ft | 121 kts | 167° |
| 2026-04-16 07:31 | 58.93700 | 5.63616 | 873 ft | 116 kts | 171° |
| 2026-04-16 07:31 | 58.92912 | 5.63616 | 818 ft | 111 kts | 170° |
| 2026-04-16 07:32 | 58.92121 | 5.63666 | 657 ft | 116 kts | 171° |
| 2026-04-16 07:32 | 58.91318 | 5.63670 | 464 ft | 115 kts | 172° |
| 2026-04-16 07:32 | 58.90504 | 5.63706 | 300 ft | 118 kts | 173° |
| 2026-04-16 07:32 | 58.89680 | 5.63719 | 145 ft | 119 kts | 173° |
| 2026-04-16 07:33 | 58.88875 | 5.63747 | 27 ft | 107 kts | 172° |
| 2026-04-16 07:33 | 58.88250 | 5.63766 | 30 ft | 73 kts | 180° |
| 2026-04-16 07:33 | 58.87899 | 5.63777 | 31 ft | 35 kts | 179° |
| 2026-04-16 07:33 | 58.87734 | 5.63782 | 32 ft | 14 kts | 180° |
| 2026-04-16 07:34 | 58.87694 | 5.63690 | 32 ft | 11 kts | 276° |
| 2026-04-16 07:34 | 58.87719 | 5.63525 | 31 ft | 14 kts | 286° |
| 2026-04-16 07:34 | 58.87753 | 5.63333 | 30 ft | 14 kts | 304° |
| 2026-04-16 07:34 | 58.87837 | 5.63291 | 30 ft | 13 kts | 4° |
| 2026-04-16 07:35 | 58.87922 | 5.63352 | 30 ft | 13 kts | 25° |
| 2026-04-16 07:35 | 58.88007 | 5.63423 | 29 ft | 12 kts | 21° |
| 2026-04-16 07:35 | 58.88099 | 5.63436 | 29 ft | 14 kts | 359° |
| 2026-04-16 07:35 | 58.88201 | 5.63431 | 29 ft | 14 kts | 359° |
| 2026-04-16 07:36 | 58.88272 | 5.63384 | 30 ft | 8 kts | 294° |
| 2026-04-16 07:36 | 58.88289 | 5.63284 | 29 ft | 10 kts | 309° |
| 2026-04-16 07:36 | 58.88336 | 5.63221 | 27 ft | 7 kts | 285° |
| 2026-04-16 07:36 | 58.88324 | 5.63132 | 25 ft | 5 kts | 254° |
| 2026-04-16 07:37 | 58.88318 | 5.63092 | 24 ft | 2 kts | 254° |
| 2026-04-16 07:37 | 58.88317 | 5.63083 | 25 ft | 0 kts | 254° |
| 2026-04-16 07:37 | 58.88316 | 5.63081 | 25 ft | 0 kts | 254° |
| 2026-04-16 07:38 | 58.88316 | 5.63080 | 25 ft | 0 kts | 254° |